createdAt,value
2018-09-24T00:00:03.954Z,8.20
2018-09-24T00:02:31.668Z,8.00
2018-09-24T00:04:59.485Z,7.90
2018-09-24T00:07:27.249Z,7.70
2018-09-24T00:09:55.234Z,7.60
2018-09-24T00:12:23.031Z,7.50
2018-09-24T00:14:50.838Z,7.40
2018-09-24T00:17:18.651Z,7.20
2018-09-24T00:19:46.441Z,7.00
2018-09-24T00:22:14.241Z,7.00
2018-09-24T00:24:42.047Z,7.00
2018-09-24T00:27:09.827Z,7.00
2018-09-24T00:29:37.601Z,6.90
2018-09-24T00:32:05.404Z,6.70
2018-09-24T00:34:33.202Z,6.80
2018-09-24T00:37:00.978Z,6.70
2018-09-24T00:39:28.788Z,6.70
2018-09-24T00:41:56.566Z,6.80
2018-09-24T00:44:24.333Z,6.90
2018-09-24T00:46:52.096Z,7.10
2018-09-24T00:49:19.863Z,7.30
2018-09-24T00:51:47.652Z,7.50
2018-09-24T00:54:15.444Z,7.70
2018-09-24T00:56:43.244Z,7.80
2018-09-24T00:59:11.070Z,7.80
2018-09-24T01:01:38.865Z,7.80
2018-09-24T01:04:06.680Z,7.70
2018-09-24T01:06:34.440Z,7.60
2018-09-24T01:09:02.210Z,7.50
2018-09-24T01:11:30.195Z,7.50
2018-09-24T01:13:58.014Z,7.40
2018-09-24T01:16:25.811Z,7.40
2018-09-24T01:18:53.611Z,7.20
2018-09-24T01:21:21.440Z,7.10
2018-09-24T01:23:49.235Z,6.90
2018-09-24T01:26:17.038Z,6.80
2018-09-24T01:28:44.834Z,6.80
2018-09-24T01:31:12.642Z,7.00
2018-09-24T01:33:40.444Z,7.00
2018-09-24T01:36:08.269Z,7.10
2018-09-24T01:38:36.037Z,7.00
2018-09-24T01:41:03.842Z,7.00
2018-09-24T01:43:31.622Z,7.10
2018-09-24T01:45:59.451Z,7.30
2018-09-24T01:48:27.221Z,7.30
2018-09-24T01:50:55.087Z,7.30
2018-09-24T01:53:22.912Z,7.30
2018-09-24T01:55:51.418Z,7.30
2018-09-24T01:58:19.433Z,7.20
2018-09-24T02:00:47.317Z,7.30
2018-09-24T02:03:15.091Z,7.30
2018-09-24T02:05:42.862Z,7.50
2018-09-24T02:08:10.676Z,7.60
2018-09-24T02:10:38.473Z,7.60
2018-09-24T02:13:06.350Z,7.60
2018-09-24T02:15:34.174Z,7.60
2018-09-24T02:18:01.969Z,7.70
2018-09-24T02:20:29.814Z,7.70
2018-09-24T02:22:57.612Z,7.80
2018-09-24T02:25:25.445Z,7.80
2018-09-24T02:27:53.247Z,7.80
2018-09-24T02:30:21.062Z,7.80
2018-09-24T02:32:48.837Z,8.00
2018-09-24T02:35:17.737Z,8.00
2018-09-24T02:37:45.536Z,8.00
2018-09-24T02:40:20.544Z,8.10
2018-09-24T02:42:48.932Z,8.00
2018-09-24T02:45:16.713Z,7.90
2018-09-24T02:47:44.572Z,7.90
2018-09-24T02:50:12.370Z,8.00
2018-09-24T02:53:14.644Z,8.10
2018-09-24T03:00:54.969Z,8.20
2018-09-24T03:03:22.794Z,8.00
2018-09-24T03:05:51.508Z,7.80
2018-09-24T03:08:19.368Z,7.80
2018-09-24T03:10:47.254Z,7.60
2018-09-24T03:13:15.101Z,7.50
2018-09-24T03:15:42.890Z,7.40
2018-09-24T03:18:10.882Z,7.30
2018-09-24T03:20:43.065Z,7.20
2018-09-24T03:23:10.901Z,7.10
2018-09-24T03:25:39.198Z,7.00
2018-09-24T03:28:08.021Z,6.80
2018-09-24T03:30:40.366Z,6.70
2018-09-24T03:33:08.184Z,6.70
2018-09-24T03:36:02.282Z,6.70
2018-09-24T03:38:38.184Z,6.70
2018-09-24T03:41:06.335Z,6.90
2018-09-24T03:43:34.281Z,7.00
2018-09-24T03:46:02.193Z,7.10
2018-09-24T03:48:30.163Z,7.20
2018-09-24T03:50:58.036Z,7.30
2018-09-24T03:53:25.938Z,7.40
2018-09-24T03:55:53.841Z,7.60
2018-09-24T03:58:21.822Z,7.70
2018-09-24T04:00:50.332Z,7.80
2018-09-24T04:03:18.226Z,7.80
2018-09-24T04:05:51.758Z,7.70
2018-09-24T04:08:25.196Z,7.60
2018-09-24T04:10:58.587Z,7.40
2018-09-24T04:13:32.075Z,7.30
2018-09-24T04:16:05.444Z,7.20
2018-09-24T04:18:38.903Z,7.20
2018-09-24T04:21:12.257Z,7.20
2018-09-24T04:23:45.624Z,7.30
2018-09-24T04:26:19.018Z,7.30
2018-09-24T04:28:52.383Z,7.60
2018-09-24T04:31:25.825Z,8.30
2018-09-24T04:33:59.313Z,8.70
2018-09-24T04:36:32.755Z,8.80
2018-09-24T04:39:07.106Z,8.70
2018-09-24T04:41:40.510Z,8.60
2018-09-24T04:44:13.959Z,8.50
2018-09-24T04:46:47.277Z,8.40
2018-09-24T04:49:20.760Z,8.40
2018-09-24T04:51:54.043Z,8.40
2018-09-24T04:54:27.483Z,8.40
2018-09-24T04:57:00.851Z,8.40
2018-09-24T04:59:34.325Z,8.40
2018-09-24T05:02:07.829Z,8.50
2018-09-24T05:04:41.263Z,8.40
2018-09-24T05:07:14.680Z,8.40
2018-09-24T05:09:47.993Z,8.10
2018-09-24T05:12:21.325Z,7.90
2018-09-24T05:14:54.580Z,7.50
2018-09-24T05:17:27.937Z,7.30
2018-09-24T05:20:01.252Z,7.30
2018-09-24T05:22:34.528Z,7.30
2018-09-24T05:25:07.885Z,7.20
2018-09-24T05:27:41.098Z,7.20
2018-09-24T05:30:14.484Z,7.10
2018-09-24T05:32:47.934Z,7.00
2018-09-24T05:35:22.219Z,6.90
2018-09-24T05:37:55.695Z,6.80
2018-09-24T05:40:29.045Z,6.70
2018-09-24T05:43:02.478Z,6.70
2018-09-24T05:45:35.935Z,6.70
2018-09-24T05:48:09.424Z,6.80
2018-09-24T05:50:42.841Z,6.90
2018-09-24T05:53:16.132Z,6.80
2018-09-24T05:55:51.533Z,6.80
2018-09-24T05:58:24.831Z,6.90
2018-09-24T06:00:58.193Z,7.00
2018-09-24T06:03:31.607Z,7.20
2018-09-24T06:06:04.944Z,7.40
2018-09-24T06:08:38.276Z,7.60
2018-09-24T06:11:13.607Z,7.70
2018-09-24T06:13:46.962Z,7.90
2018-09-24T06:16:21.200Z,7.90
2018-09-24T06:18:54.753Z,8.00
2018-09-24T06:21:28.129Z,8.10
2018-09-24T06:24:01.518Z,8.10
2018-09-24T06:26:34.822Z,8.10
2018-09-24T06:29:08.097Z,8.10
2018-09-24T06:31:41.563Z,8.20
2018-09-24T06:34:15.084Z,8.50
2018-09-24T06:36:48.408Z,9.00
2018-09-24T06:39:21.796Z,9.60
2018-09-24T06:41:55.125Z,10.00
2018-09-24T06:44:28.517Z,10.40
2018-09-24T06:47:01.950Z,10.70
2018-09-24T06:49:35.492Z,10.70
2018-09-24T06:52:08.832Z,10.60
2018-09-24T06:54:42.127Z,10.50
2018-09-24T06:57:15.491Z,10.40
2018-09-24T06:59:48.900Z,10.10
2018-09-24T07:02:22.286Z,9.90
2018-09-24T07:04:56.581Z,9.80
2018-09-24T07:07:29.997Z,9.70
2018-09-24T07:10:03.372Z,9.70
2018-09-24T07:12:36.735Z,9.70
2018-09-24T07:15:10.163Z,9.60
2018-09-24T07:17:43.705Z,9.60
2018-09-24T07:20:17.057Z,9.60
2018-09-24T07:22:50.479Z,9.70
2018-09-24T07:25:23.909Z,9.70
2018-09-24T07:27:58.472Z,9.80
2018-09-24T07:30:31.824Z,9.80
2018-09-24T07:33:05.294Z,9.90
2018-09-24T07:35:38.765Z,10.10
2018-09-24T07:38:12.242Z,10.10
2018-09-24T07:40:45.578Z,10.00
2018-09-24T07:43:19.011Z,9.80
2018-09-24T07:45:52.427Z,9.80
2018-09-24T07:48:25.772Z,10.00
2018-09-24T07:50:59.263Z,10.30
2018-09-24T07:53:32.696Z,10.90
2018-09-24T07:56:06.102Z,11.70
2018-09-24T07:58:39.392Z,12.30
2018-09-24T08:01:12.910Z,12.90
2018-09-24T08:03:46.222Z,13.50
2018-09-24T08:06:19.534Z,13.80
2018-09-24T08:08:53.035Z,14.00
2018-09-24T08:11:26.497Z,14.30
2018-09-24T08:13:59.968Z,14.30
2018-09-24T08:16:34.287Z,14.40
2018-09-24T08:19:07.677Z,14.70
2018-09-24T08:21:41.086Z,15.10
2018-09-24T08:24:14.416Z,15.30
2018-09-24T08:26:47.887Z,15.30
2018-09-24T08:29:21.322Z,15.30
2018-09-24T08:31:54.680Z,15.50
2018-09-24T08:34:27.945Z,15.90
2018-09-24T08:37:01.270Z,16.40
2018-09-24T08:39:34.834Z,16.80
2018-09-24T08:42:08.304Z,16.60
2018-09-24T08:44:41.692Z,16.50
2018-09-24T08:47:16.115Z,16.50
2018-09-24T08:49:49.397Z,17.00
2018-09-24T08:52:22.628Z,17.20
2018-09-24T08:54:55.936Z,17.10
2018-09-24T08:57:42.444Z,16.90
2018-09-24T09:00:15.919Z,16.60
2018-09-24T09:05:27.785Z,16.30
2018-09-24T09:08:01.410Z,16.60
2018-09-24T09:10:34.898Z,17.10
2018-09-24T09:13:08.162Z,16.90
2018-09-24T09:15:41.572Z,16.30
2018-09-24T09:18:14.906Z,16.20
2018-09-24T09:20:48.225Z,16.30
2018-09-24T09:23:21.486Z,16.50
2018-09-24T09:25:54.795Z,16.30
2018-09-24T09:28:28.036Z,16.40
2018-09-24T09:31:01.545Z,16.50
2018-09-24T09:33:34.901Z,16.10
2018-09-24T09:36:09.317Z,16.30
2018-09-24T09:38:42.582Z,16.70
2018-09-24T09:41:17.003Z,16.90
2018-09-24T09:43:50.306Z,17.10
2018-09-24T09:46:23.606Z,16.90
2018-09-24T09:48:57.012Z,17.00
2018-09-24T09:51:30.317Z,17.00
2018-09-24T09:54:03.905Z,17.10
2018-09-24T09:56:37.296Z,17.30
2018-09-24T09:59:10.703Z,17.40
2018-09-24T10:01:44.019Z,17.30
2018-09-24T10:04:17.313Z,17.80
2018-09-24T10:06:50.717Z,17.20
2018-09-24T10:09:23.991Z,16.40
2018-09-24T10:11:57.418Z,16.30
2018-09-24T10:14:30.907Z,16.90
2018-09-24T10:17:04.243Z,17.60
2018-09-24T10:19:37.659Z,18.50
2018-09-24T10:22:11.092Z,19.10
2018-09-24T11:10:04.111Z,15.80
2018-09-24T11:12:37.504Z,16.60
2018-09-24T11:15:11.044Z,16.50
2018-09-24T11:17:44.619Z,16.40
2018-09-24T11:20:17.973Z,16.50
2018-09-24T11:22:52.481Z,17.30
2018-09-24T11:25:25.937Z,18.30
2018-09-24T11:27:59.525Z,18.60
2018-09-24T11:30:33.146Z,19.30
2018-09-24T11:33:06.722Z,19.90
2018-09-24T11:35:40.270Z,18.60
2018-09-24T11:38:22.732Z,17.10
2018-09-24T11:40:56.130Z,16.10
2018-09-24T11:43:29.567Z,15.70
2018-09-24T11:46:03.112Z,16.60
2018-09-24T11:48:38.504Z,17.70
2018-09-24T11:51:12.306Z,18.40
2018-09-24T11:53:45.768Z,17.80
2018-09-24T11:56:19.232Z,16.60
2018-09-24T11:58:52.734Z,15.70
2018-09-24T12:01:26.235Z,15.60
2018-09-24T12:03:59.649Z,16.20
2018-09-24T12:06:33.037Z,16.40
2018-09-24T12:09:06.542Z,17.20
2018-09-24T12:11:39.962Z,17.70
2018-09-24T12:14:13.415Z,18.50
2018-09-24T12:16:46.726Z,18.90
2018-09-24T12:19:20.284Z,18.70
2018-09-24T12:21:53.727Z,17.50
2018-09-24T12:24:27.152Z,17.30
2018-09-24T12:27:00.479Z,17.80
2018-09-24T12:29:34.164Z,18.40
2018-09-24T12:32:07.527Z,18.50
2018-09-24T12:34:41.100Z,18.20
2018-09-24T12:37:14.670Z,17.70
2018-09-24T12:39:48.274Z,17.10
2018-09-24T12:42:21.928Z,16.30
2018-09-24T12:44:55.371Z,16.30
2018-09-24T12:47:28.898Z,17.30
2018-09-24T12:50:02.331Z,18.10
2018-09-24T12:56:21.865Z,18.00
2018-09-24T12:58:55.536Z,17.80
2018-09-24T13:01:28.946Z,18.00
2018-09-24T13:04:02.484Z,18.20
2018-09-24T13:06:35.898Z,17.20
2018-09-24T13:09:10.945Z,16.20
2018-09-24T13:11:44.528Z,15.70
2018-09-24T13:14:18.051Z,15.20
2018-09-24T13:16:51.498Z,14.80
2018-09-24T13:19:24.977Z,14.80
2018-09-24T13:21:58.293Z,14.70
2018-09-24T13:24:31.723Z,14.70
2018-09-24T13:27:05.333Z,14.60
2018-09-24T13:29:38.643Z,14.50
2018-09-24T13:32:12.038Z,14.30
2018-09-24T13:34:45.451Z,14.20
2018-09-24T13:39:52.301Z,16.10
2018-09-24T13:42:25.836Z,16.90
2018-09-24T13:44:59.474Z,16.10
2018-09-24T13:47:32.945Z,15.30
2018-09-24T13:50:06.430Z,15.00
2018-09-24T13:52:39.794Z,14.80
2018-09-24T13:55:13.574Z,14.70
2018-09-24T13:57:48.229Z,14.50
2018-09-24T14:00:21.750Z,14.60
2018-09-24T14:02:55.430Z,15.60
2018-09-24T14:05:28.815Z,16.70
2018-09-24T14:08:03.231Z,17.20
2018-09-24T14:10:36.644Z,17.90
2018-09-24T14:13:11.351Z,18.50
2018-09-24T14:15:46.220Z,18.60
2018-09-24T14:18:19.584Z,18.40
2018-09-24T14:20:53.176Z,18.80
2018-09-24T14:23:26.796Z,18.90
2018-09-24T14:26:00.223Z,17.90
2018-09-24T14:28:36.940Z,17.20
2018-09-24T14:31:11.353Z,16.60
2018-09-24T14:33:47.571Z,16.20
2018-09-24T14:36:21.163Z,15.70
2018-09-24T14:38:54.580Z,15.50
2018-09-24T14:41:28.204Z,15.00
2018-09-24T14:46:35.250Z,14.40
2018-09-24T14:49:08.573Z,14.40
2018-09-24T14:51:41.954Z,14.40
2018-09-24T14:54:15.377Z,14.50
2018-09-24T14:56:49.041Z,14.50
2018-09-24T14:59:22.505Z,14.50
2018-09-24T15:01:56.082Z,14.50
2018-09-24T15:04:29.754Z,14.60
2018-09-24T15:07:03.204Z,14.70
2018-09-24T15:09:36.686Z,15.20
2018-09-24T15:12:11.135Z,15.40
2018-09-24T15:14:44.736Z,15.30
2018-09-24T15:17:18.111Z,15.20
2018-09-24T15:19:52.871Z,15.20
2018-09-24T15:22:26.326Z,15.60
2018-09-24T15:24:59.893Z,15.70
2018-09-24T15:27:33.225Z,15.40
2018-09-24T15:30:06.748Z,15.20
2018-09-24T15:32:40.118Z,15.40
2018-09-24T15:35:13.804Z,15.30
2018-09-24T15:37:47.508Z,15.20
2018-09-24T15:40:20.933Z,15.30
2018-09-24T15:42:54.537Z,15.30
2018-09-24T15:45:27.869Z,15.30
2018-09-24T15:48:01.567Z,15.30
2018-09-24T15:50:35.019Z,15.00
2018-09-24T15:53:08.441Z,14.90
2018-09-24T15:55:41.825Z,14.80
2018-09-24T15:58:15.236Z,14.60
2018-09-24T16:00:48.840Z,14.50
2018-09-24T16:03:22.621Z,14.30
2018-09-24T16:05:55.948Z,14.10
2018-09-24T16:08:29.271Z,14.00
2018-09-24T16:11:03.855Z,13.90
2018-09-24T16:13:37.272Z,13.80
2018-09-24T16:16:11.281Z,13.70
2018-09-24T16:18:44.709Z,13.70
2018-09-24T16:21:18.015Z,13.70
2018-09-24T16:23:51.472Z,13.60
2018-09-24T16:26:24.834Z,13.60
2018-09-24T16:28:58.232Z,13.50
2018-09-24T16:31:31.640Z,13.50
2018-09-24T16:34:04.981Z,13.60
2018-09-24T16:36:38.389Z,13.50
2018-09-24T16:39:13.070Z,13.50
2018-09-24T16:41:46.682Z,13.50
2018-09-24T16:44:20.338Z,13.60
2018-09-24T16:46:53.745Z,13.70
2018-09-24T16:49:27.102Z,13.60
2018-09-24T16:52:00.473Z,13.50
2018-09-24T16:54:33.862Z,13.30
2018-09-24T16:57:07.292Z,13.20
2018-09-24T16:59:40.570Z,13.10
2018-09-24T17:02:14.114Z,13.10
2018-09-24T17:04:47.485Z,13.10
2018-09-24T17:07:20.941Z,13.00
2018-09-24T17:09:54.266Z,13.20
2018-09-24T17:15:01.190Z,12.80
2018-09-24T17:17:34.555Z,12.50
2018-09-24T17:20:07.890Z,12.30
2018-09-24T17:22:41.251Z,12.10
2018-09-24T17:25:14.637Z,12.00
2018-09-24T17:27:47.938Z,11.90
2018-09-24T17:30:21.257Z,11.80
2018-09-24T17:32:54.731Z,11.70
2018-09-24T17:38:01.434Z,11.40
2018-09-24T17:40:34.866Z,11.20
2018-09-24T17:43:08.282Z,11.10
2018-09-24T17:45:41.793Z,11.00
2018-09-24T17:48:15.127Z,10.90
2018-09-24T17:50:48.447Z,10.80
2018-09-24T17:53:21.945Z,10.60
2018-09-24T17:55:58.013Z,10.70
2018-09-24T17:58:31.510Z,10.60
2018-09-24T18:01:04.829Z,10.40
2018-09-24T18:03:38.233Z,10.30
2018-09-24T18:06:11.580Z,10.10
2018-09-24T18:08:45.012Z,10.00
2018-09-24T18:11:18.405Z,9.90
2018-09-24T18:13:51.802Z,9.80
2018-09-24T18:16:25.199Z,9.80
2018-09-24T18:18:58.793Z,9.80
2018-09-24T18:21:32.168Z,9.80
2018-09-24T18:24:05.708Z,9.90
2018-09-24T18:26:39.142Z,9.90
2018-09-24T18:29:12.582Z,10.00
2018-09-24T18:31:46.132Z,10.00
2018-09-24T18:34:20.421Z,10.00
2018-09-24T18:36:54.751Z,9.90
2018-09-24T18:39:28.048Z,9.70
2018-09-24T18:42:01.505Z,9.50
2018-09-24T18:44:34.911Z,9.20
2018-09-24T18:47:08.363Z,8.90
2018-09-24T18:49:41.967Z,8.80
2018-09-24T18:52:15.483Z,8.70
2018-09-24T18:54:48.862Z,8.70
2018-09-24T18:57:22.204Z,8.60
2018-09-24T18:59:55.498Z,8.50
2018-09-24T19:02:29.884Z,8.30
2018-09-24T19:05:03.272Z,8.00
2018-09-24T19:07:37.727Z,7.70
2018-09-24T19:10:11.177Z,7.50
2018-09-24T19:12:44.612Z,7.40
2018-09-24T19:15:18.028Z,7.30
2018-09-24T19:17:51.342Z,7.30
2018-09-24T19:20:24.807Z,7.40
2018-09-24T19:22:58.097Z,7.50
2018-09-24T19:25:31.471Z,7.60
2018-09-24T19:28:05.976Z,7.50
2018-09-24T19:30:39.325Z,7.70
2018-09-24T19:33:12.769Z,7.60
2018-09-24T19:35:46.186Z,7.40
2018-09-24T19:38:19.550Z,7.30
2018-09-24T19:40:53.024Z,7.10
2018-09-24T19:43:26.461Z,6.90
2018-09-24T19:45:59.838Z,6.70
2018-09-24T19:48:33.292Z,6.60
2018-09-24T19:51:06.670Z,6.40
2018-09-24T19:53:40.040Z,6.50
2018-09-24T19:56:13.509Z,6.50
2018-09-24T19:58:46.928Z,6.40
2018-09-24T20:01:21.243Z,6.40
2018-09-24T20:03:54.667Z,6.20
2018-09-24T20:06:28.015Z,6.00
2018-09-24T20:09:01.312Z,5.90
2018-09-24T20:11:34.673Z,5.90
2018-09-24T20:14:08.077Z,6.00
2018-09-24T20:16:41.441Z,6.10
2018-09-24T20:19:14.824Z,6.10
2018-09-24T20:21:49.291Z,6.30
2018-09-24T20:24:22.668Z,6.30
2018-09-24T20:26:55.908Z,6.20
2018-09-24T20:29:29.275Z,6.30
2018-09-24T20:32:02.627Z,6.20
2018-09-24T20:34:36.040Z,5.90
2018-09-24T20:37:09.409Z,5.70
2018-09-24T20:39:42.810Z,5.50
2018-09-24T20:42:17.213Z,5.40
2018-09-24T20:44:50.608Z,5.30
2018-09-24T20:47:23.982Z,5.40
2018-09-24T20:49:57.392Z,5.30
2018-09-24T20:52:30.977Z,5.30
2018-09-24T20:55:04.353Z,5.30
2018-09-24T20:57:37.769Z,5.30
2018-09-24T21:00:11.338Z,5.30
2018-09-24T21:02:44.801Z,5.10
2018-09-24T21:05:19.121Z,5.00
2018-09-24T21:07:52.595Z,4.90
2018-09-24T21:10:25.945Z,5.20
2018-09-24T21:12:59.427Z,5.40
2018-09-24T21:15:32.911Z,5.70
2018-09-24T21:18:06.355Z,5.80
2018-09-24T21:20:39.889Z,6.00
2018-09-24T21:23:13.265Z,6.10
2018-09-24T21:25:46.559Z,6.00
2018-09-24T21:28:20.016Z,5.90
2018-09-24T21:30:53.529Z,5.90
2018-09-24T21:33:26.973Z,6.10
2018-09-24T21:36:00.412Z,6.20
2018-09-24T21:38:33.850Z,6.20
2018-09-24T21:41:07.313Z,6.00
2018-09-24T21:43:40.768Z,6.20
2018-09-24T21:46:14.293Z,6.20
2018-09-24T21:48:47.516Z,6.30
2018-09-24T21:51:22.477Z,6.30
2018-09-24T21:53:56.058Z,6.20
2018-09-24T21:59:42.905Z,6.00
2018-09-24T22:02:16.307Z,6.10
2018-09-24T22:04:49.797Z,5.80
2018-09-24T22:09:56.520Z,5.20
2018-09-24T22:12:29.787Z,5.20
2018-09-24T22:15:03.182Z,5.40
2018-09-24T22:17:36.623Z,5.40
2018-09-24T22:20:10.200Z,5.40
2018-09-24T22:22:43.659Z,5.30
2018-09-24T22:25:17.122Z,5.40
2018-09-24T22:27:50.584Z,5.30
2018-09-24T22:30:23.972Z,5.30
2018-09-24T22:32:57.371Z,5.10
2018-09-24T22:35:30.807Z,5.00
2018-09-24T22:38:04.277Z,4.90
2018-09-24T22:40:37.701Z,4.80
2018-09-24T22:43:11.046Z,4.60
2018-09-24T22:45:44.335Z,4.50
2018-09-24T22:48:17.728Z,4.40
2018-09-24T22:50:51.198Z,4.30
2018-09-24T22:53:24.526Z,4.10
2018-09-24T22:55:58.008Z,4.20
2018-09-24T22:58:31.490Z,4.30
2018-09-24T23:01:04.807Z,4.20
2018-09-24T23:03:38.223Z,4.20
2018-09-24T23:06:11.786Z,4.20
2018-09-24T23:08:45.216Z,4.10
2018-09-24T23:11:19.713Z,4.00
2018-09-24T23:13:53.117Z,4.00
2018-09-24T23:16:26.538Z,4.00
2018-09-24T23:18:59.897Z,4.00
2018-09-24T23:21:33.217Z,4.20
2018-09-24T23:24:06.695Z,4.40
2018-09-24T23:26:40.023Z,4.30
2018-09-24T23:29:13.400Z,4.40
2018-09-24T23:31:47.735Z,4.70
2018-09-24T23:34:21.255Z,4.80
2018-09-24T23:36:54.567Z,4.80
2018-09-24T23:39:27.919Z,4.60
2018-09-24T23:42:01.328Z,4.50
2018-09-24T23:44:34.801Z,4.50
2018-09-24T23:47:08.197Z,4.50
2018-09-24T23:49:41.564Z,4.40
2018-09-24T23:52:14.990Z,4.40
2018-09-24T23:54:48.335Z,4.40
2018-09-24T23:57:21.767Z,4.50
2018-09-24T23:59:55.129Z,4.40
